Time;durP1;ratioP1;P1;durP2;ratioP2;P2;SDS_P1;SDS_P2;PMS_P1;PMS_P2;Temp;Humidity;BMP_temperature;BMP_pressure;BME280_temperature;BME280_humidity;BME280_pressure;Samples;Min_cycle;Max_cycle;Signal;HPM_P1;HPM_P2
2021/03/13 00:00:53;;;;;;;;;;;;;;;13.56;51.13;99900.47;5098264;28;20430;-85
2021/03/13 00:03:19;;;;;;;;;;;;;;;13.01;52.20;99900.81;5099208;28;19916;-82
2021/03/13 00:05:45;;;;;;;;;;;;;;;13.14;51.95;99900.81;5100074;28;19916;-82
2021/03/13 00:08:11;;;;;;;;;;;;;;;12.59;52.89;99895.69;5100278;28;19979;-83
2021/03/13 00:10:37;;;;;;;;;;;;;;;12.80;52.63;99880.66;5098365;28;19916;-83
2021/03/13 00:13:03;;;;;;;;;;;;;;;12.86;52.60;99885.66;5099788;28;19974;-82
2021/03/13 00:15:29;;;;;;;;;;;;;;;13.01;51.90;99887.25;5101158;28;19926;-83
2021/03/13 00:17:55;;;;;;;;;;;;;;;12.81;52.97;99882.41;5099803;28;19920;-82
2021/03/13 00:20:23;;;;;;;;;;;;;;;12.61;52.79;99871.16;5099883;28;19916;-83
2021/03/13 00:22:48;;;;;;;;;;;;;;;12.77;52.35;99866.34;5100354;28;19955;-82
2021/03/13 00:25:13;;;;;;;;;;;;;;;12.98;52.38;99863.03;5102178;28;19931;-82
2021/03/13 00:27:46;;;;;;;;;;;;;;;12.97;51.80;99852.28;5102791;28;19952;-84
2021/03/13 00:30:21;;;;;;;;;;;;;;;12.91;52.83;99851.78;5099183;28;19916;-83
2021/03/13 00:32:48;;;;;;;;;;;;;;;13.54;51.68;99842.66;5099581;28;20438;-84
2021/03/13 00:35:14;;;;;;;;;;;;;;;12.53;54.64;99835.56;5100571;28;19916;-83
2021/03/13 00:37:39;;;;;;;;;;;;;;;12.38;55.45;99838.41;5098272;28;19931;-84
2021/03/13 00:40:05;;;;;;;;;;;;;;;12.65;54.61;99828.38;5097319;28;20369;-83
2021/03/13 00:42:31;;;;;;;;;;;;;;;13.15;53.92;99817.47;5097069;28;19965;-83
2021/03/13 00:44:56;;;;;;;;;;;;;;;12.20;55.88;99812.59;5098939;28;20440;-82
2021/03/13 00:47:22;;;;;;;;;;;;;;;11.84;57.35;99816.88;5098599;28;19920;-82
2021/03/13 00:49:47;;;;;;;;;;;;;;;12.53;56.09;99805.72;5097209;28;19974;-83
2021/03/13 00:52:12;;;;;;;;;;;;;;;12.44;55.80;99796.41;5097504;28;19938;-84
2021/03/13 00:54:37;;;;;;;;;;;;;;;11.44;58.73;99808.78;5098836;28;20301;-84
2021/03/13 00:57:02;;;;;;;;;;;;;;;11.64;58.28;99792.03;5096989;28;19916;-83
2021/03/13 00:59:28;;;;;;;;;;;;;;;12.07;56.97;99784.63;5096904;28;20255;-83
2021/03/13 01:01:53;;;;;;;;;;;;;;;12.27;56.52;99775.06;5097649;28;19916;-83
2021/03/13 01:04:19;;;;;;;;;;;;;;;12.50;56.29;99782.41;5097160;28;19922;-82
2021/03/13 01:06:44;;;;;;;;;;;;;;;11.96;57.44;99774.53;5097361;28;19916;-82
2021/03/13 01:09:09;;;;;;;;;;;;;;;12.78;54.95;99755.94;5098564;28;19916;-83
2021/03/13 01:11:34;;;;;;;;;;;;;;;11.93;56.92;99753.94;5100365;28;20003;-83
2021/03/13 01:14:00;;;;;;;;;;;;;;;12.81;54.83;99735.84;5100346;28;19919;-84
2021/03/13 01:16:25;;;;;;;;;;;;;;;12.02;57.05;99738.88;5098625;28;19920;-83
2021/03/13 01:18:50;;;;;;;;;;;;;;;12.30;56.60;99720.59;5099808;28;19924;-82
2021/03/13 01:21:15;;;;;;;;;;;;;;;12.21;56.83;99723.00;5100427;28;20373;-82
2021/03/13 01:23:41;;;;;;;;;;;;;;;11.80;57.56;99713.25;5098722;28;20011;-82
2021/03/13 01:26:06;;;;;;;;;;;;;;;12.60;55.62;99698.47;5099605;28;19917;-84
2021/03/13 01:28:31;;;;;;;;;;;;;;;12.56;56.02;99695.13;5098172;28;19920;-82
2021/03/13 01:30:56;;;;;;;;;;;;;;;12.19;56.67;99676.16;5098313;28;19916;-82
2021/03/13 01:33:22;;;;;;;;;;;;;;;12.19;56.80;99678.84;5098911;28;19912;-82
2021/03/13 01:35:47;;;;;;;;;;;;;;;12.28;56.62;99669.19;5099238;28;19923;-83
2021/03/13 01:38:12;;;;;;;;;;;;;;;12.23;57.38;99647.84;5098249;28;19939;-82
2021/03/13 01:40:39;;;;;;;;;;;;;;;12.17;57.16;99640.16;5096065;28;19916;-82
2021/03/13 01:43:04;;;;;;;;;;;;;;;11.93;58.05;99620.28;5096581;28;20052;-83
2021/03/13 01:45:30;;;;;;;;;;;;;;;12.34;56.79;99610.91;5095304;28;20358;-83
2021/03/13 01:47:55;;;;;;;;;;;;;;;11.53;59.14;99621.25;5095359;28;19927;-82
2021/03/13 01:50:20;;;;;;;;;;;;;;;12.10;57.66;99609.03;5095443;28;20010;-83
2021/03/13 01:52:49;;;;;;;;;;;;;;;12.32;57.38;99573.06;5096511;28;19938;-84
2021/03/13 01:55:15;;;;;;;;;;;;;;;11.77;59.52;99593.38;5099239;28;20077;-84
2021/03/13 01:57:40;;;;;;;;;;;;;;;12.11;59.41;99575.53;5098624;28;19923;-84
2021/03/13 02:00:08;;;;;;;;;;;;;;;11.80;58.44;99572.34;5098361;28;20007;-84
2021/03/13 02:02:33;;;;;;;;;;;;;;;12.27;57.51;99558.13;5096805;28;19920;-84
2021/03/13 02:04:58;;;;;;;;;;;;;;;11.47;59.32;99554.88;5096143;28;20060;-83
2021/03/13 02:07:26;;;;;;;;;;;;;;;11.75;58.80;99552.00;5097358;28;19916;-84
2021/03/13 02:09:57;;;;;;;;;;;;;;;11.74;59.16;99529.44;5097737;28;19920;-83
2021/03/13 02:12:28;;;;;;;;;;;;;;;12.31;57.86;99525.22;5097050;28;19916;-84
2021/03/13 02:15:01;;;;;;;;;;;;;;;11.84;59.00;99502.53;5095280;28;19924;-82
2021/03/13 02:17:32;;;;;;;;;;;;;;;12.03;58.59;99500.22;5097467;28;19989;-83
2021/03/13 02:20:00;;;;;;;;;;;;;;;11.95;58.35;99499.91;5096121;28;19966;-83
2021/03/13 02:22:27;;;;;;;;;;;;;;;11.33;60.16;99484.59;5096412;28;19916;-83
2021/03/13 02:24:58;;;;;;;;;;;;;;;12.39;57.86;99482.13;5096020;28;19923;-84
2021/03/13 02:27:29;;;;;;;;;;;;;;;11.64;59.51;99479.63;5096475;28;19969;-83
2021/03/13 02:29:59;;;;;;;;;;;;;;;12.05;58.13;99448.59;5097571;28;19916;-85
2021/03/13 02:32:30;;;;;;;;;;;;;;;11.85;58.94;99439.22;5097589;28;19923;-85
2021/03/13 02:35:01;;;;;;;;;;;;;;;11.72;58.78;99452.00;5095582;28;20011;-85
2021/03/13 02:37:29;;;;;;;;;;;;;;;11.63;58.82;99429.16;5095712;28;19916;-83
2021/03/13 02:39:55;;;;;;;;;;;;;;;-147.53;100.00;59759.91;5095931;28;19916;-83
2021/03/13 02:42:22;;;;;;;;;;;;;;;11.76;59.43;99397.44;5095655;28;19967;-83
2021/03/13 02:44:48;;;;;;;;;;;;;;;12.30;57.87;99371.63;5096880;28;19923;-83
2021/03/13 02:47:14;;;;;;;;;;;;;;;11.95;59.12;99358.13;5095435;28;19920;-84
2021/03/13 02:49:42;;;;;;;;;;;;;;;11.81;59.15;99364.59;5095617;28;20272;-83
2021/03/13 02:52:08;;;;;;;;;;;;;;;11.68;59.67;99351.97;5095197;28;20382;-83
2021/03/13 02:54:36;;;;;;;;;;;;;;;11.74;59.49;99333.53;5095861;28;19916;-81
2021/03/13 02:57:02;;;;;;;;;;;;;;;12.19;58.01;99328.25;5095581;28;20019;-84
2021/03/13 02:59:28;;;;;;;;;;;;;;;11.58;59.88;99320.28;5095721;28;19923;-84
2021/03/13 03:01:54;;;;;;;;;;;;;;;11.65;59.16;99306.13;5096807;28;19916;-82
2021/03/13 03:04:21;;;;;;;;;;;;;;;11.64;59.92;99296.31;5095325;28;20385;-83
2021/03/13 03:06:48;;;;;;;;;;;;;;;11.57;59.82;99302.31;5096638;28;19916;-85
2021/03/13 03:09:14;;;;;;;;;;;;;;;11.08;61.23;99285.22;5095664;28;19916;-84
2021/03/13 03:11:40;;;;;;;;;;;;;;;11.92;59.27;99252.66;5095858;28;20432;-84
2021/03/13 03:14:07;;;;;;;;;;;;;;;12.03;58.55;99258.09;5096688;28;19916;-83
2021/03/13 03:16:37;;;;;;;;;;;;;;;11.95;46.77;99258.72;5095323;28;19977;-82
2021/03/13 03:19:02;;;;;;;;;;;;;;;-147.53;100.00;59759.91;5096273;28;19924;-85
2021/03/13 03:21:27;;;;;;;;;;;;;;;11.78;59.57;99256.44;5097175;28;20350;-83
2021/03/13 03:23:53;;;;;;;;;;;;;;;12.02;58.37;99230.16;5095251;28;19960;-83
2021/03/13 03:26:18;;;;;;;;;;;;;;;12.37;58.54;99217.44;5098605;28;19916;-84
2021/03/13 03:28:44;;;;;;;;;;;;;;;11.79;59.62;99196.72;5100590;28;19974;-85
2021/03/13 03:31:10;;;;;;;;;;;;;;;12.21;58.50;99185.28;5102221;28;19916;-85
2021/03/13 03:33:35;;;;;;;;;;;;;;;12.01;59.60;99193.19;5100760;28;20050;-81
2021/03/13 03:36:02;;;;;;;;;;;;;;;11.64;60.24;99177.13;5101085;28;19924;-83
2021/03/13 03:38:28;;;;;;;;;;;;;;;11.99;59.25;99170.75;5101792;28;20293;-83
2021/03/13 03:40:53;;;;;;;;;;;;;;;11.64;59.98;99166.28;5100463;28;19970;-83
2021/03/13 03:43:23;;;;;;;;;;;;;;;12.30;58.69;99143.84;5100483;28;19920;-83
2021/03/13 03:45:53;;;;;;;;;;;;;;;11.51;100.00;79126.00;5100443;28;19985;-83
2021/03/13 03:48:20;;;;;;;;;;;;;;;11.80;60.18;99144.25;5101661;28;20450;-82
2021/03/13 03:50:45;;;;;;;;;;;;;;;12.90;56.98;99138.00;5100718;28;20280;-85
2021/03/13 03:53:16;;;;;;;;;;;;;;;12.33;57.73;99129.19;5100953;28;19916;-84
2021/03/13 03:55:44;;;;;;;;;;;;;;;-147.53;100.00;59759.91;5100607;28;19916;-83
2021/03/13 03:58:09;;;;;;;;;;;;;;;-147.53;100.00;59759.91;5100707;28;20387;-85
2021/03/13 04:00:35;;;;;;;;;;;;;;;-147.53;100.00;59759.91;5100666;28;19916;-84
2021/03/13 04:03:01;;;;;;;;;;;;;;;12.32;46.67;74834.16;5100752;28;19943;-84
2021/03/13 04:05:27;;;;;;;;;;;;;;;12.28;46.16;99071.78;5100485;28;19938;-82
2021/03/13 04:07:53;;;;;;;;;;;;;;;-147.53;100.00;59759.91;5100219;28;19916;-82
2021/03/13 04:10:20;;;;;;;;;;;;;;;12.44;58.21;99076.78;5101246;28;20249;-83
2021/03/13 04:12:46;;;;;;;;;;;;;;;-147.53;100.00;59759.91;5101249;28;20341;-84
2021/03/13 04:15:12;;;;;;;;;;;;;;;11.91;60.02;99048.53;5100664;28;19955;-84
2021/03/13 04:17:37;;;;;;;;;;;;;;;12.05;59.58;99032.03;5100323;28;19924;-84
2021/03/13 04:20:04;;;;;;;;;;;;;;;11.79;60.48;99034.16;5100515;28;19916;-84
2021/03/13 04:22:29;;;;;;;;;;;;;;;12.16;59.57;99035.72;5100149;28;20404;-84
2021/03/13 04:24:56;;;;;;;;;;;;;;;12.02;59.57;99047.69;5101094;28;19916;-82
2021/03/13 04:27:21;;;;;;;;;;;;;;;11.92;59.95;99031.28;5100140;28;20296;-83
2021/03/13 04:29:46;;;;;;;;;;;;;;;11.08;62.05;99045.25;5101281;28;19951;-83
2021/03/13 04:32:13;;;;;;;;;;;;;;;12.11;60.24;99024.38;5099952;28;20339;-84
2021/03/13 04:34:38;;;;;;;;;;;;;;;11.66;60.79;99009.91;5100323;28;19938;-83
2021/03/13 04:37:04;;;;;;;;;;;;;;;12.34;59.81;99009.75;5100612;28;19916;-85
2021/03/13 04:39:30;;;;;;;;;;;;;;;11.76;61.03;99001.03;5099863;28;20397;-84
2021/03/13 04:41:56;;;;;;;;;;;;;;;11.84;60.39;98985.88;5100041;28;20371;-84
2021/03/13 04:44:21;;;;;;;;;;;;;;;12.00;59.54;98992.75;5099767;28;19916;-84
2021/03/13 04:46:48;;;;;;;;;;;;;;;12.24;60.07;98973.56;5099579;28;19927;-84
2021/03/13 04:49:13;;;;;;;;;;;;;;;11.60;61.27;98980.63;5099853;28;20014;-84
2021/03/13 04:51:38;;;;;;;;;;;;;;;11.52;61.95;98966.88;5099545;28;20008;-84
2021/03/13 04:54:04;;;;;;;;;;;;;;;11.75;62.37;98959.53;5099353;28;19930;-85
2021/03/13 04:56:30;;;;;;;;;;;;;;;11.48;62.49;98955.41;5099576;28;19924;-83
2021/03/13 04:58:55;;;;;;;;;;;;;;;11.64;61.74;98937.88;5099490;28;19916;-83
2021/03/13 05:01:20;;;;;;;;;;;;;;;11.89;61.42;98928.59;5099474;28;20297;-83
2021/03/13 05:03:46;;;;;;;;;;;;;;;11.46;61.71;98941.13;5099199;28;20010;-83
2021/03/13 05:06:11;;;;;;;;;;;;;;;11.98;60.53;98917.00;5100961;28;19920;-83
2021/03/13 05:08:37;;;;;;;;;;;;;;;11.54;62.62;98910.72;5101506;28;19927;-84
2021/03/13 05:11:02;;;;;;;;;;;;;;;11.09;63.87;98922.47;5099681;28;19927;-85
2021/03/13 05:13:27;;;;;;;;;;;;;;;10.98;63.56;98919.78;5099629;28;19916;-83
2021/03/13 05:15:53;;;;;;;;;;;;;;;11.30;63.97;98927.13;5099876;28;19920;-83
2021/03/13 05:18:18;;;;;;;;;;;;;;;11.55;64.18;98907.03;5100855;28;19991;-84
2021/03/13 05:20:43;;;;;;;;;;;;;;;11.12;63.41;98891.59;5098862;28;19916;-87
2021/03/13 05:23:08;;;;;;;;;;;;;;;11.14;62.62;99006.88;5099887;28;19927;-85
2021/03/13 05:25:34;;;;;;;;;;;;;;;11.35;58.84;98976.34;5101195;28;19964;-82
2021/03/13 05:27:59;;;;;;;;;;;;;;;11.64;59.60;98960.44;5101989;28;19923;-84
2021/03/13 05:30:30;;;;;;;;;;;;;;;11.44;60.59;98986.41;5104527;28;20369;-84
2021/03/13 05:32:55;;;;;;;;;;;;;;;11.59;61.00;98983.47;5103248;28;19917;-86
2021/03/13 05:35:21;;;;;;;;;;;;;;;11.83;59.05;98994.13;5101915;28;20503;-86
2021/03/13 05:37:46;;;;;;;;;;;;;;;11.46;58.54;98994.44;5100683;28;19955;-84
2021/03/13 05:40:12;;;;;;;;;;;;;;;12.10;57.40;98987.44;5103702;28;19916;-84
2021/03/13 05:42:38;;;;;;;;;;;;;;;12.07;56.61;98971.44;5099744;28;19975;-87
2021/03/13 05:45:04;;;;;;;;;;;;;;;11.55;55.52;98985.56;5099059;28;19917;-84
2021/03/13 05:47:30;;;;;;;;;;;;;;;11.64;54.07;98990.22;5096669;28;19932;-84
2021/03/13 05:49:58;;;;;;;;;;;;;;;11.48;53.51;99006.00;5097160;28;20028;-83
2021/03/13 05:52:25;;;;;;;;;;;;;;;11.53;53.60;99001.06;5097022;28;19947;-84
2021/03/13 05:54:52;;;;;;;;;;;;;;;11.84;53.35;99009.41;5097206;28;19920;-84
2021/03/13 05:57:17;;;;;;;;;;;;;;;11.50;53.96;99013.03;5097090;28;19924;-83
2021/03/13 05:59:42;;;;;;;;;;;;;;;11.70;54.15;99019.53;5098569;28;19916;-85
2021/03/13 06:02:09;;;;;;;;;;;;;;;10.82;55.80;99012.97;5098544;28;20026;-81
2021/03/13 06:04:34;;;;;;;;;;;;;;;11.92;53.12;99016.91;5101486;28;20345;-83
2021/03/13 06:07:00;;;;;;;;;;;;;;;11.45;54.43;99028.75;5100616;28;19939;-83
2021/03/13 06:09:25;;;;;;;;;;;;;;;11.58;53.54;99012.41;5099728;28;19916;-84
2021/03/13 06:11:51;;;;;;;;;;;;;;;11.50;53.97;99018.44;5099690;28;19916;-85
2021/03/13 06:14:17;;;;;;;;;;;;;;;11.75;53.31;99021.84;5100586;28;20020;-86
2021/03/13 06:16:42;;;;;;;;;;;;;;;11.66;53.06;99015.31;5099309;28;19927;-86
2021/03/13 06:19:07;;;;;;;;;;;;;;;11.01;53.38;99016.09;5100258;28;19920;-84
2021/03/13 06:21:38;;;;;;;;;;;;;;;11.43;52.96;99029.84;5099044;28;19917;-83
2021/03/13 06:24:24;;;;;;;;;;;;;;;11.88;51.41;99037.94;5085815;28;19920;-85
2021/03/13 06:26:59;;;;;;;;;;;;;;;11.65;52.34;99042.53;5088997;28;19975;-86
2021/03/13 06:29:24;;;;;;;;;;;;;;;11.61;52.64;99036.53;5098680;28;20003;-85
2021/03/13 06:32:11;;;;;;;;;;;;;;;11.37;53.39;99033.06;5099385;28;19955;-85
2021/03/13 06:34:36;;;;;;;;;;;;;;;12.09;52.12;99059.72;5098079;28;20007;-85
2021/03/13 06:37:20;;;;;;;;;;;;;;;11.75;52.66;99031.84;5098098;28;19956;-86
2021/03/13 06:39:45;;;;;;;;;;;;;;;11.77;52.54;99046.09;5098540;28;19923;-87
2021/03/13 06:42:19;;;;;;;;;;;;;;;11.10;53.11;99027.03;5101612;28;19916;-88
2021/03/13 06:44:58;;;;;;;;;;;;;;;12.29;50.69;99039.13;5094362;28;20013;-85
2021/03/13 06:47:36;;;;;;;;;;;;;;;11.09;52.97;99051.50;5093943;28;20282;-87
2021/03/13 06:50:09;;;;;;;;;;;;;;;11.72;50.75;99045.63;5093216;28;19973;-85
2021/03/13 06:52:34;;;;;;;;;;;;;;;11.48;50.84;99047.47;5092166;28;19919;-87
2021/03/13 06:55:00;;;;;;;;;;;;;;;11.98;50.02;99054.34;5092241;28;19917;-85
2021/03/13 06:57:25;;;;;;;;;;;;;;;11.37;50.42;99046.59;5092192;28;20366;-85
2021/03/13 06:59:51;;;;;;;;;;;;;;;11.65;48.97;99037.97;5090742;28;19924;-84
2021/03/13 07:02:20;;;;;;;;;;;;;;;11.22;49.98;99040.56;5089229;28;19959;-84
2021/03/13 07:04:45;;;;;;;;;;;;;;;11.68;49.85;99028.75;5089466;28;19935;-86
2021/03/13 07:07:12;;;;;;;;;;;;;;;11.13;49.81;99032.19;5092563;28;19920;-84
2021/03/13 07:09:54;;;;;;;;;;;;;;;12.11;47.88;99038.81;5092863;28;19916;-85
2021/03/13 07:12:26;;;;;;;;;;;;;;;11.55;48.64;99045.16;5091531;28;19916;-85
2021/03/13 07:14:52;;;;;;;;;;;;;;;11.05;50.21;99040.06;5092831;28;20072;-85
2021/03/13 07:17:17;;;;;;;;;;;;;;;11.85;47.87;99041.78;5090691;28;20073;-82
2021/03/13 07:19:43;;;;;;;;;;;;;;;12.15;48.16;99042.09;5090291;28;20338;-84
2021/03/13 07:22:12;;;;;;;;;;;;;;;11.41;49.19;99034.56;5089873;28;19916;-85
2021/03/13 07:24:37;;;;;;;;;;;;;;;11.96;46.83;99031.94;5090673;28;19920;-84
2021/03/13 07:27:04;;;;;;;;;;;;;;;11.98;47.49;99036.22;5090810;28;20323;-83
2021/03/13 07:29:30;;;;;;;;;;;;;;;11.72;47.74;99040.22;5090706;28;19920;-84
2021/03/13 07:31:59;;;;;;;;;;;;;;;12.65;46.46;99039.72;5090026;28;19973;-85
2021/03/13 07:34:28;;;;;;;;;;;;;;;11.38;49.94;99059.16;5089476;28;19920;-85
2021/03/13 07:36:54;;;;;;;;;;;;;;;12.46;47.42;99048.53;5088875;28;19946;-86
2021/03/13 07:39:26;;;;;;;;;;;;;;;12.47;48.98;99057.53;5089588;28;19924;-83
2021/03/13 07:41:54;;;;;;;;;;;;;;;12.02;49.63;99059.41;5087863;28;19982;-83
2021/03/13 07:44:19;;;;;;;;;;;;;;;12.27;49.23;99062.78;5088679;28;19924;-82
2021/03/13 07:46:45;;;;;;;;;;;;;;;12.16;50.24;99057.41;5091248;28;19926;-85
2021/03/13 07:49:12;;;;;;;;;;;;;;;11.19;51.62;99095.81;5089053;28;20005;-85
2021/03/13 07:51:37;;;;;;;;;;;;;;;12.03;50.00;99096.34;5089950;28;19923;-84
2021/03/13 07:54:03;;;;;;;;;;;;;;;12.37;48.82;99065.59;5088554;28;19916;-86
2021/03/13 07:56:31;;;;;;;;;;;;;;;12.21;49.87;99075.00;5091570;28;20400;-84
2021/03/13 07:58:56;;;;;;;;;;;;;;;12.88;48.40;99066.72;5092305;28;19916;-84
2021/03/13 08:01:42;;;;;;;;;;;;;;;12.38;49.79;99094.44;5090728;28;20305;-84
2021/03/13 08:04:07;;;;;;;;;;;;;;;13.09;49.31;99072.16;5088272;28;19920;-85
2021/03/13 08:06:52;;;;;;;;;;;;;;;13.14;48.25;99080.75;5090484;28;19920;-83
2021/03/13 08:09:24;;;;;;;;;;;;;;;12.36;49.83;99089.13;5091424;28;20429;-84
2021/03/13 08:11:50;;;;;;;;;;;;;;;12.57;49.02;99077.47;5091014;28;19934;-84
2021/03/13 08:14:29;;;;;;;;;;;;;;;12.89;48.17;99082.00;5095344;28;20353;-83
2021/03/13 08:17:04;;;;;;;;;;;;;;;12.20;48.94;99096.81;5095465;28;19927;-84
2021/03/13 08:19:32;;;;;;;;;;;;;;;12.76;46.99;99080.34;5094677;28;20362;-83
2021/03/13 08:22:13;;;;;;;;;;;;;;;12.99;46.49;99091.09;5095108;28;20377;-86
2021/03/13 08:24:39;;;;;;;;;;;;;;;12.82;45.66;99107.94;5094936;28;19931;-86
2021/03/13 08:27:04;;;;;;;;;;;;;;;12.09;47.63;99100.41;5095046;28;20392;-84
2021/03/13 08:29:43;;;;;;;;;;;;;;;12.51;45.89;99099.69;5095773;28;19912;-83
2021/03/13 08:32:08;;;;;;;;;;;;;;;12.94;45.65;99096.91;5097498;28;19939;-83
2021/03/13 08:34:33;;;;;;;;;;;;;;;13.34;44.98;99087.19;5096779;28;19912;-84
2021/03/13 08:37:13;;;;;;;;;;;;;;;12.98;45.92;99078.50;5096288;28;19923;-83
2021/03/13 08:39:38;;;;;;;;;;;;;;;12.90;46.13;99084.59;5096694;28;19916;-83
2021/03/13 08:42:04;;;;;;;;;;;;;;;12.32;48.29;99084.06;5097984;28;19922;-84
2021/03/13 08:44:33;;;;;;;;;;;;;;;12.22;48.40;99111.97;5094914;28;19919;-83
2021/03/13 08:47:05;;;;;;;;;;;;;;;12.95;47.77;99086.91;5088053;28;19924;-82
2021/03/13 08:49:30;;;;;;;;;;;;;;;11.94;49.75;99077.25;5095060;28;19916;-84
2021/03/13 08:52:05;;;;;;;;;;;;;;;11.80;49.27;99089.19;5096205;28;20011;-85
2021/03/13 08:54:47;;;;;;;;;;;;;;;12.81;48.29;99087.25;5095726;28;20090;-86
2021/03/13 08:57:12;;;;;;;;;;;;;;;12.89;47.97;99077.47;5095291;28;19920;-82
2021/03/13 08:59:39;;;;;;;;;;;;;;;12.56;47.85;99106.44;5095109;28;20297;-85
2021/03/13 09:02:10;;;;;;;;;;;;;;;13.28;47.12;99093.13;5095511;28;19916;-84
2021/03/13 09:04:36;;;;;;;;;;;;;;;12.90;47.18;99090.00;5087188;28;19983;-84
2021/03/13 09:07:02;;;;;;;;;;;;;;;13.60;45.66;99108.50;5081579;28;20016;-83
2021/03/13 09:09:33;;;;;;;;;;;;;;;12.88;46.40;99078.44;5086243;28;19978;-85
2021/03/13 09:12:00;;;;;;;;;;;;;;;13.45;45.48;99091.69;5090908;28;19923;-83
2021/03/13 09:14:26;;;;;;;;;;;;;;;13.73;45.33;99103.69;5093658;28;19916;-83
2021/03/13 09:16:51;;;;;;;;;;;;;;;13.09;46.12;99115.59;5093744;28;19924;-86
2021/03/13 09:19:17;;;;;;;;;;;;;;;13.46;45.16;99110.56;5095178;28;19930;-86
2021/03/13 09:21:51;;;;;;;;;;;;;;;13.25;45.35;99117.84;5094285;28;19959;-89
2021/03/13 09:24:20;;;;;;;;;;;;;;;12.37;47.11;99128.81;5095221;28;19925;-84
2021/03/13 09:26:56;;;;;;;;;;;;;;;12.80;44.83;99099.06;5093994;28;20327;-85
2021/03/13 09:29:50;;;;;;;;;;;;;;;12.90;44.61;99109.00;5096140;28;20016;-85
2021/03/13 09:32:16;;;;;;;;;;;;;;;12.73;44.84;99115.88;5093594;28;20400;-82
2021/03/13 09:34:42;;;;;;;;;;;;;;;12.23;46.59;99118.25;5093299;28;19919;-85
2021/03/13 09:37:11;;;;;;;;;;;;;;;12.35;45.85;99117.25;5093747;28;19957;-87
2021/03/13 09:39:36;;;;;;;;;;;;;;;11.63;46.61;99129.34;5094816;28;19916;-84
2021/03/13 09:42:17;;;;;;;;;;;;;;;12.28;45.82;99118.72;5094674;28;19927;-86
2021/03/13 09:44:45;;;;;;;;;;;;;;;13.22;44.40;99124.38;5095171;28;20014;-86
2021/03/13 09:47:11;;;;;;;;;;;;;;;12.58;44.59;99120.75;5094408;28;19924;-84
2021/03/13 09:49:36;;;;;;;;;;;;;;;12.64;44.91;99143.78;5092486;28;19920;-85
2021/03/13 09:52:02;;;;;;;;;;;;;;;12.86;44.81;99123.84;5094058;28;19920;-87
2021/03/13 09:54:27;;;;;;;;;;;;;;;13.34;43.34;99138.78;5094979;28;19916;-84
2021/03/13 09:56:52;;;;;;;;;;;;;;;12.96;43.87;99147.50;5094642;28;19920;-83
2021/03/13 09:59:18;;;;;;;;;;;;;;;13.29;43.45;99135.59;5093282;28;19920;-85
2021/03/13 10:01:44;;;;;;;;;;;;;;;13.09;44.43;99127.31;5094458;28;20396;-88
2021/03/13 10:04:09;;;;;;;;;;;;;;;12.96;43.95;99132.06;5094576;28;19963;-91
2021/03/13 10:06:34;;;;;;;;;;;;;;;14.46;42.02;99122.53;5097770;28;19920;-89
2021/03/13 10:09:00;;;;;;;;;;;;;;;13.98;42.97;99132.28;5094976;28;19923;-87
2021/03/13 10:11:54;;;;;;;;;;;;;;;13.29;43.31;99144.59;5098501;28;19927;-90
2021/03/13 10:14:21;;;;;;;;;;;;;;;13.22;44.12;99121.66;5088465;28;19916;-86
2021/03/13 10:16:47;;;;;;;;;;;;;;;13.85;43.23;99138.94;5097251;28;19920;-88
2021/03/13 10:19:31;;;;;;;;;;;;;;;13.95;42.31;99135.28;5095716;28;20312;-86
2021/03/13 10:22:10;;;;;;;;;;;;;;;13.40;43.29;99116.53;5093151;28;20006;-87
2021/03/13 10:24:47;;;;;;;;;;;;;;;13.47;43.48;99120.44;5092372;28;20432;-85
2021/03/13 10:27:28;;;;;;;;;;;;;;;13.34;44.01;99133.38;5088350;28;20003;-84
2021/03/13 10:30:01;;;;;;;;;;;;;;;13.23;43.81;99138.84;5092412;28;19916;-85
2021/03/13 10:32:31;;;;;;;;;;;;;;;12.71;43.63;99147.72;5093598;28;19922;-88
2021/03/13 10:35:08;;;;;;;;;;;;;;;13.17;43.16;99147.53;5093595;28;20533;-88
2021/03/13 10:37:38;;;;;;;;;;;;;;;12.87;44.54;99127.41;5093063;28;20008;-85
2021/03/13 10:40:04;;;;;;;;;;;;;;;13.21;43.45;99138.97;5094139;28;20435;-86
2021/03/13 10:42:34;;;;;;;;;;;;;;;12.83;44.85;99128.66;5085287;28;20305;-87
2021/03/13 10:45:19;;;;;;;;;;;;;;;12.71;45.14;99139.56;5094406;28;19920;-87
2021/03/13 10:47:45;;;;;;;;;;;;;;;13.40;42.68;99119.25;5095877;28;19926;-86
2021/03/13 10:50:11;;;;;;;;;;;;;;;13.44;43.43;99156.03;5094120;28;19999;-87
2021/03/13 10:52:38;;;;;;;;;;;;;;;12.79;43.70;99119.06;5094243;28;19920;-86
2021/03/13 10:55:04;;;;;;;;;;;;;;;13.03;43.88;99141.41;5092998;28;20315;-85
2021/03/13 10:57:29;;;;;;;;;;;;;;;12.82;44.08;99157.66;5092801;28;19920;-86
2021/03/13 10:59:54;;;;;;;;;;;;;;;12.99;43.76;99139.94;5093591;28;19916;-86
2021/03/13 11:02:20;;;;;;;;;;;;;;;13.02;44.29;99150.53;5093801;28;19916;-87
2021/03/13 11:04:45;;;;;;;;;;;;;;;13.28;43.63;99123.84;5093594;28;19916;-86
2021/03/13 11:07:11;;;;;;;;;;;;;;;12.02;47.94;99146.13;5093101;28;19916;-87
2021/03/13 11:09:36;;;;;;;;;;;;;;;12.61;47.37;99146.75;5093359;28;19912;-85
2021/03/13 11:12:01;;;;;;;;;;;;;;;12.53;47.36;99151.94;5093566;28;19927;-88
2021/03/13 11:14:27;;;;;;;;;;;;;;;12.36;46.11;99140.63;5094338;28;20284;-87
2021/03/13 11:16:52;;;;;;;;;;;;;;;13.08;45.12;99141.03;5095597;28;19924;-85
2021/03/13 11:19:18;;;;;;;;;;;;;;;13.87;43.78;99162.25;5096629;28;19920;-86
2021/03/13 11:21:43;;;;;;;;;;;;;;;13.76;43.89;99155.06;5095910;28;19916;-87
2021/03/13 11:24:09;;;;;;;;;;;;;;;12.77;45.90;99160.78;5094548;28;19951;-87
2021/03/13 11:26:34;;;;;;;;;;;;;;;12.87;44.57;99149.13;5093550;28;20373;-86
2021/03/13 11:29:00;;;;;;;;;;;;;;;12.77;45.59;99160.78;5093565;28;19923;-87
2021/03/13 11:31:25;;;;;;;;;;;;;;;12.83;45.20;99153.09;5094091;28;20375;-87
2021/03/13 11:33:50;;;;;;;;;;;;;;;12.94;44.29;99167.47;5094846;28;20551;-87
2021/03/13 11:36:16;;;;;;;;;;;;;;;12.25;45.11;99158.81;5096224;28;20333;-85
2021/03/13 11:38:42;;;;;;;;;;;;;;;12.81;44.83;99155.06;5095588;28;20192;-86
2021/03/13 11:41:11;;;;;;;;;;;;;;;12.92;44.50;99158.63;5100412;28;19912;-85
2021/03/13 11:43:42;;;;;;;;;;;;;;;12.66;45.23;99170.78;5100532;28;19940;-87
2021/03/13 11:46:08;;;;;;;;;;;;;;;13.06;44.39;99162.03;5100479;28;19920;-85
2021/03/13 11:48:33;;;;;;;;;;;;;;;12.76;44.20;99158.19;5107951;28;19971;-83
2021/03/13 11:50:59;;;;;;;;;;;;;;;12.16;46.52;99177.53;5105763;28;19916;-87
2021/03/13 11:53:24;;;;;;;;;;;;;;;12.66;46.38;99174.34;5101803;28;19952;-91
2021/03/13 11:55:50;;;;;;;;;;;;;;;12.79;47.00;99178.75;5099609;28;19916;-90
2021/03/13 11:58:15;;;;;;;;;;;;;;;13.01;45.65;99183.25;5098115;28;20281;-87
2021/03/13 12:00:41;;;;;;;;;;;;;;;12.55;46.58;99183.38;5096720;28;19943;-89
2021/03/13 12:03:06;;;;;;;;;;;;;;;12.65;46.10;99183.50;5095917;28;20297;-87
2021/03/13 12:05:31;;;;;;;;;;;;;;;13.28;44.31;99174.59;5095717;28;19927;-89
2021/03/13 12:07:57;;;;;;;;;;;;;;;14.16;43.02;99203.19;5097210;28;19924;-91
2021/03/13 12:10:22;;;;;;;;;;;;;;;13.81;44.54;99193.59;5096038;28;19920;-85
2021/03/13 12:12:52;;;;;;;;;;;;;;;14.04;45.42;99192.53;5096557;28;19916;-88
2021/03/13 12:15:18;;;;;;;;;;;;;;;14.10;44.03;99197.41;5097482;28;19920;-87
2021/03/13 12:17:44;;;;;;;;;;;;;;;13.93;44.34;99199.78;5097156;28;19931;-86
2021/03/13 12:20:10;;;;;;;;;;;;;;;13.16;45.88;99197.38;5095535;28;19951;-86
2021/03/13 12:22:35;;;;;;;;;;;;;;;13.29;46.01;99185.34;5095192;28;19969;-85
2021/03/13 12:25:01;;;;;;;;;;;;;;;13.48;44.94;99191.91;5094695;28;19920;-84
2021/03/13 12:27:27;;;;;;;;;;;;;;;13.86;44.87;99205.88;5094265;28;19986;-84
2021/03/13 12:29:52;;;;;;;;;;;;;;;13.05;48.41;99212.72;5093835;28;19989;-84
2021/03/13 12:32:18;;;;;;;;;;;;;;;12.91;48.58;99199.47;5094687;28;19923;-85
2021/03/13 12:34:43;;;;;;;;;;;;;;;12.89;48.39;99206.84;5094529;28;19962;-85
2021/03/13 12:37:09;;;;;;;;;;;;;;;12.47;48.03;99221.16;5093682;28;19924;-84
2021/03/13 12:39:34;;;;;;;;;;;;;;;13.09;46.55;99216.91;5093073;28;19920;-86
2021/03/13 12:41:59;;;;;;;;;;;;;;;13.45;45.35;99195.78;5091284;28;19931;-84
2021/03/13 12:44:25;;;;;;;;;;;;;;;13.06;44.91;99216.31;5089981;28;19920;-84
2021/03/13 12:46:50;;;;;;;;;;;;;;;13.80;44.47;99229.91;5090877;28;19928;-86